createdAt,value
2018-12-13T00:00:46.985Z,75.00
2018-12-13T00:03:18.430Z,91.07
2018-12-13T00:05:50.679Z,82.30
2018-12-13T00:08:21.824Z,82.77
2018-12-13T00:10:52.961Z,75.87
2018-12-13T00:13:24.396Z,84.50
2018-12-13T00:15:55.760Z,86.43
2018-12-13T00:18:26.787Z,97.63
2018-12-13T00:20:58.056Z,80.37
2018-12-13T00:23:29.195Z,82.17
2018-12-13T00:26:00.620Z,89.17
2018-12-13T00:28:31.839Z,87.47
2018-12-13T00:31:03.427Z,77.80
2018-12-13T00:33:34.787Z,76.07
2018-12-13T00:36:06.748Z,79.40
2018-12-13T00:38:37.717Z,82.87
2018-12-13T00:41:08.588Z,92.30
2018-12-13T00:43:39.597Z,97.13
2018-12-13T00:46:10.201Z,84.57
2018-12-13T00:48:40.804Z,84.17
2018-12-13T00:51:11.606Z,83.80
2018-12-13T00:53:42.511Z,82.40
2018-12-13T00:56:14.297Z,87.63
2018-12-13T00:58:45.191Z,85.30
2018-12-13T01:01:16.582Z,82.93
2018-12-13T01:03:47.825Z,84.80
2018-12-13T01:06:19.692Z,82.47
2018-12-13T01:08:50.764Z,83.87
2018-12-13T01:11:21.711Z,93.57
2018-12-13T01:13:52.206Z,86.53
2018-12-13T01:16:24.716Z,84.93
2018-12-13T01:18:55.888Z,82.60
2018-12-13T01:21:26.826Z,80.97
2018-12-13T01:23:58.853Z,82.40
2018-12-13T01:26:29.297Z,77.27
2018-12-13T01:29:00.245Z,90.73
2018-12-13T01:31:31.469Z,76.23
2018-12-13T01:34:02.300Z,85.73
2018-12-13T01:36:32.920Z,83.33
2018-12-13T01:39:05.158Z,84.93
2018-12-13T01:41:36.596Z,84.00
2018-12-13T01:44:07.916Z,84.30
2018-12-13T01:46:38.889Z,89.00
2018-12-13T01:49:10.066Z,84.70
2018-12-13T01:51:41.398Z,86.67
2018-12-13T01:54:12.742Z,90.33
2018-12-13T01:56:44.011Z,75.03
2018-12-13T01:59:16.154Z,77.17
2018-12-13T02:01:47.700Z,82.60
2018-12-13T02:04:18.904Z,78.57
2018-12-13T02:06:50.062Z,77.10
2018-12-13T02:09:21.019Z,83.10
2018-12-13T02:11:51.817Z,85.10
2018-12-13T02:14:22.480Z,86.67
2018-12-13T02:16:54.456Z,82.27
2018-12-13T02:19:25.319Z,78.83
2018-12-13T02:21:56.891Z,87.03
2018-12-13T02:24:27.621Z,86.70
2018-12-13T02:26:58.080Z,88.03
2018-12-13T02:29:28.783Z,79.30
2018-12-13T02:31:59.837Z,89.43
2018-12-13T02:34:30.519Z,76.83
2018-12-13T02:37:06.100Z,87.03
2018-12-13T02:39:33.503Z,82.20
2018-12-13T02:42:04.548Z,90.23
2018-12-13T02:44:35.547Z,81.20
2018-12-13T02:47:05.705Z,78.37
2018-12-13T02:49:36.407Z,76.40
2018-12-13T02:52:08.434Z,86.60
2018-12-13T02:54:40.095Z,75.73
2018-12-13T02:57:12.081Z,68.73
2018-12-13T02:59:44.152Z,89.57
2018-12-13T03:02:15.065Z,80.17
2018-12-13T03:04:47.238Z,72.57
2018-12-13T03:07:18.176Z,80.97
2018-12-13T03:09:49.863Z,81.90
2018-12-13T03:12:21.080Z,66.00
2018-12-13T03:14:52.201Z,76.77
2018-12-13T03:17:24.083Z,69.27
2018-12-13T03:19:55.888Z,79.90
2018-12-13T03:22:27.310Z,87.13
2018-12-13T03:24:59.282Z,87.17
2018-12-13T03:27:31.156Z,75.43
2018-12-13T03:30:02.220Z,69.93
2018-12-13T03:32:33.155Z,80.80
2018-12-13T03:35:05.159Z,81.27
2018-12-13T03:37:36.483Z,86.20
2018-12-13T03:40:07.462Z,76.80
2018-12-13T03:42:40.130Z,69.80
2018-12-13T03:45:11.558Z,79.80
2018-12-13T03:47:42.777Z,73.23
2018-12-13T03:50:14.149Z,77.53
2018-12-13T03:52:46.765Z,78.23
2018-12-13T03:55:18.248Z,81.43
2018-12-13T03:57:49.597Z,79.13
2018-12-13T04:00:20.724Z,76.77
2018-12-13T04:02:51.760Z,74.93
2018-12-13T04:05:23.774Z,75.97
2018-12-13T04:07:54.976Z,80.27
2018-12-13T04:10:26.252Z,78.93
2018-12-13T04:12:57.180Z,77.50
2018-12-13T04:15:28.811Z,79.40
2018-12-13T04:18:00.749Z,76.97
2018-12-13T04:20:31.328Z,80.13
2018-12-13T04:23:03.441Z,67.70
2018-12-13T04:25:34.336Z,72.73
2018-12-13T04:28:06.851Z,82.87
2018-12-13T04:30:38.002Z,81.20
2018-12-13T04:33:09.091Z,77.60
2018-12-13T04:35:41.254Z,79.13
2018-12-13T04:38:12.862Z,83.07
2018-12-13T04:40:45.087Z,80.63
2018-12-13T04:43:16.665Z,79.37
2018-12-13T04:45:48.205Z,79.77
2018-12-13T04:48:19.773Z,81.10
2018-12-13T04:50:51.155Z,74.67
2018-12-13T04:53:22.316Z,77.03
2018-12-13T04:55:53.739Z,78.07
2018-12-13T04:58:24.916Z,82.47
2018-12-13T05:00:57.062Z,68.87
2018-12-13T05:03:27.804Z,87.10
2018-12-13T05:05:59.438Z,77.50
2018-12-13T05:08:31.239Z,77.97
2018-12-13T05:11:02.638Z,80.80
2018-12-13T05:13:33.638Z,79.27
2018-12-13T05:16:05.475Z,76.23
2018-12-13T05:18:36.899Z,80.90
2018-12-13T05:21:08.238Z,77.90
2018-12-13T05:23:39.000Z,82.67
2018-12-13T05:26:10.340Z,76.97
2018-12-13T05:28:42.012Z,89.97
2018-12-13T05:31:14.020Z,92.97
2018-12-13T05:33:45.196Z,83.30
2018-12-13T05:36:17.319Z,79.77
2018-12-13T05:38:48.196Z,89.93
2018-12-13T05:41:20.490Z,75.17
2018-12-13T05:43:55.032Z,96.00
2018-12-13T05:46:26.289Z,88.47
2018-12-13T05:48:57.718Z,88.27
2018-12-13T05:51:29.744Z,88.43
2018-12-13T05:54:01.369Z,80.60
2018-12-13T05:56:32.411Z,90.93
2018-12-13T05:59:03.067Z,84.03
2018-12-13T06:01:34.591Z,87.33
2018-12-13T06:04:05.684Z,83.97
2018-12-13T06:06:37.525Z,86.37
2018-12-13T06:09:09.637Z,74.83
2018-12-13T06:11:41.224Z,80.10
2018-12-13T06:14:12.284Z,77.43
2018-12-13T06:16:43.631Z,81.40
2018-12-13T06:19:17.194Z,74.10
2018-12-13T06:21:48.340Z,82.13
2018-12-13T06:24:19.838Z,91.77
2018-12-13T06:26:51.613Z,95.77
2018-12-13T06:29:23.804Z,81.33
2018-12-13T06:31:55.398Z,70.87
2018-12-13T06:34:26.968Z,79.53
2018-12-13T06:36:58.704Z,81.07
2018-12-13T06:39:29.522Z,90.50
2018-12-13T06:42:00.674Z,79.00
2018-12-13T06:44:32.346Z,84.33
2018-12-13T06:47:03.547Z,81.37
2018-12-13T06:49:34.972Z,82.73
2018-12-13T06:52:07.372Z,87.27
2018-12-13T06:54:38.409Z,81.57
2018-12-13T06:57:10.103Z,82.10
2018-12-13T06:59:41.088Z,87.27
2018-12-13T07:02:14.916Z,99.47
2018-12-13T07:04:45.840Z,88.63
2018-12-13T07:07:17.228Z,89.70
2018-12-13T07:09:48.594Z,86.77
2018-12-13T07:12:19.455Z,98.90
2018-12-13T07:14:51.090Z,87.40
2018-12-13T07:17:22.197Z,80.83
2018-12-13T07:19:53.791Z,77.07
2018-12-13T07:22:25.841Z,83.63
2018-12-13T07:24:57.340Z,94.93
2018-12-13T07:27:28.407Z,92.40
2018-12-13T07:29:59.721Z,88.63
2018-12-13T07:32:31.566Z,87.20
2018-12-13T07:35:02.833Z,89.20
2018-12-13T07:37:34.165Z,84.90
2018-12-13T07:40:05.834Z,88.70
2018-12-13T07:42:37.407Z,73.40
2018-12-13T07:45:09.198Z,80.60
2018-12-13T07:47:40.545Z,91.07
2018-12-13T07:50:12.302Z,77.80
2018-12-13T07:52:45.200Z,98.63
2018-12-13T07:55:16.763Z,95.57
2018-12-13T07:57:54.464Z,97.83
2018-12-13T08:00:30.246Z,85.93
2018-12-13T08:03:03.504Z,99.50
2018-12-13T08:05:35.200Z,94.10
2018-12-13T08:08:07.738Z,93.30
2018-12-13T08:10:49.353Z,93.03
2018-12-13T08:13:20.868Z,94.80
2018-12-13T08:15:58.114Z,96.70
2018-12-13T08:18:34.175Z,92.00
2018-12-13T08:21:07.301Z,104.13
2018-12-13T08:23:39.163Z,98.17
2018-12-13T08:26:12.979Z,103.77
2018-12-13T08:28:43.944Z,95.47
2018-12-13T08:31:15.327Z,96.23
2018-12-13T08:33:47.174Z,89.23
2018-12-13T08:36:19.383Z,92.83
2018-12-13T08:38:49.967Z,99.07
2018-12-13T08:41:21.416Z,99.97
2018-12-13T08:43:52.768Z,83.67
2018-12-13T08:46:28.577Z,89.97
2018-12-13T08:49:01.118Z,84.20
2018-12-13T08:51:33.839Z,76.50
2018-12-13T08:54:06.587Z,72.50
2018-12-13T08:56:38.257Z,72.50
2018-12-13T08:59:09.459Z,78.87
2018-12-13T09:01:44.002Z,75.90
2018-12-13T09:04:15.479Z,71.07
2018-12-13T09:06:47.543Z,74.57
2018-12-13T09:09:21.462Z,77.23
2018-12-13T09:11:55.399Z,74.40
2018-12-13T09:14:30.881Z,71.50
2018-12-13T09:17:02.271Z,74.77
2018-12-13T09:19:36.929Z,70.20
2018-12-13T09:22:08.241Z,77.53
2018-12-13T09:24:42.436Z,80.33
2018-12-13T09:27:18.090Z,68.93
2018-12-13T09:29:50.825Z,73.80
2018-12-13T09:32:22.228Z,78.57
2018-12-13T09:35:02.494Z,68.37
2018-12-13T09:37:33.557Z,75.90
2018-12-13T09:40:06.956Z,73.57
2018-12-13T09:42:40.349Z,74.53
2018-12-13T09:45:11.394Z,67.80
2018-12-13T09:47:43.069Z,72.43
2018-12-13T09:50:14.906Z,74.17
2018-12-13T09:52:46.652Z,73.80
2018-12-13T09:55:18.818Z,75.47
2018-12-13T09:57:49.966Z,77.33
2018-12-13T10:00:21.687Z,78.53
2018-12-13T10:02:53.548Z,71.40
2018-12-13T10:05:25.973Z,68.40
2018-12-13T10:07:56.652Z,65.57
2018-12-13T10:10:28.122Z,79.10
2018-12-13T10:12:59.718Z,75.43
2018-12-13T10:15:32.155Z,75.33
2018-12-13T10:18:03.870Z,64.30
2018-12-13T10:20:37.005Z,75.70
2018-12-13T10:23:12.380Z,64.73
2018-12-13T10:25:43.544Z,69.23
2018-12-13T10:28:15.435Z,68.30
2018-12-13T10:30:46.923Z,69.87
2018-12-13T10:33:18.149Z,61.13
2018-12-13T10:35:50.285Z,65.07
2018-12-13T10:38:21.470Z,67.77
2018-12-13T10:40:52.033Z,56.53
2018-12-13T10:43:23.086Z,62.60
2018-12-13T10:45:54.328Z,59.83
2018-12-13T10:48:27.704Z,70.90
2018-12-13T10:51:00.263Z,59.67
2018-12-13T10:53:32.063Z,71.60
2018-12-13T10:56:03.886Z,64.17
2018-12-13T10:58:35.667Z,62.10
2018-12-13T11:01:11.576Z,74.50
2018-12-13T11:03:44.159Z,62.67
2018-12-13T11:06:15.805Z,60.77
2018-12-13T11:08:47.562Z,62.47
2018-12-13T11:11:18.633Z,70.00
2018-12-13T11:13:50.175Z,61.27
2018-12-13T11:16:21.795Z,75.67
2018-12-13T11:18:53.251Z,63.43
2018-12-13T11:21:24.230Z,65.33
2018-12-13T11:23:55.594Z,67.17
2018-12-13T11:26:26.590Z,65.23
2018-12-13T11:29:17.001Z,62.03
2018-12-13T11:31:48.135Z,63.90
2018-12-13T11:34:18.954Z,64.27
2018-12-13T11:36:50.853Z,61.30
2018-12-13T11:39:22.271Z,71.10
2018-12-13T11:41:54.755Z,72.10
2018-12-13T11:44:26.921Z,74.17
2018-12-13T11:46:57.982Z,54.77
2018-12-13T11:49:28.932Z,55.93
2018-12-13T11:51:59.762Z,60.33
2018-12-13T11:54:44.338Z,64.83
2018-12-13T11:57:16.037Z,58.53
2018-12-13T11:59:47.406Z,52.30
2018-12-13T12:02:24.018Z,59.20
2018-12-13T12:04:53.309Z,59.13
2018-12-13T12:07:24.996Z,56.17
2018-12-13T12:09:57.164Z,60.03
2018-12-13T12:12:28.245Z,60.03
2018-12-13T12:14:59.595Z,53.50
2018-12-13T12:17:32.398Z,59.40
2018-12-13T12:20:03.410Z,56.27
2018-12-13T12:22:35.716Z,52.50
2018-12-13T12:25:08.010Z,65.83
2018-12-13T12:27:39.643Z,56.17
2018-12-13T12:30:11.384Z,45.13
2018-12-13T12:32:43.753Z,50.17
2018-12-13T12:35:15.955Z,47.60
2018-12-13T12:37:47.713Z,46.43
2018-12-13T12:40:19.999Z,39.40
2018-12-13T12:42:51.333Z,42.00
2018-12-13T12:45:22.963Z,38.10
2018-12-13T12:47:54.167Z,43.90
2018-12-13T12:50:25.304Z,45.93
2018-12-13T12:52:56.755Z,40.40
2018-12-13T12:55:28.707Z,37.00
2018-12-13T12:58:00.672Z,36.57
2018-12-13T13:00:31.937Z,78.03
2018-12-13T13:03:04.793Z,50.33
2018-12-13T13:05:37.409Z,42.57
2018-12-13T13:08:08.824Z,46.40
2018-12-13T13:10:40.815Z,38.20
2018-12-13T13:13:12.225Z,39.30
2018-12-13T13:15:43.875Z,43.07
2018-12-13T13:18:15.333Z,44.87
2018-12-13T13:20:46.923Z,49.13
2018-12-13T13:23:17.898Z,40.83
2018-12-13T13:25:49.503Z,45.03
2018-12-13T13:28:20.954Z,47.17
2018-12-13T13:30:53.004Z,48.30
2018-12-13T13:33:23.766Z,45.37
2018-12-13T13:35:57.459Z,46.70
2018-12-13T13:38:28.698Z,62.50
2018-12-13T13:41:00.270Z,56.37
2018-12-13T13:43:31.015Z,41.63
2018-12-13T13:46:02.368Z,41.87
2018-12-13T13:48:33.801Z,46.63
2018-12-13T13:51:05.172Z,43.63
2018-12-13T13:53:36.842Z,44.70
2018-12-13T13:56:08.115Z,45.97
2018-12-13T13:58:39.800Z,43.33
2018-12-13T14:01:10.564Z,41.90
2018-12-13T14:03:41.487Z,65.80
2018-12-13T14:06:12.723Z,53.13
2018-12-13T14:08:43.443Z,60.83
2018-12-13T14:11:14.766Z,49.07
2018-12-13T14:13:45.719Z,44.73
2018-12-13T14:16:17.324Z,51.57
2018-12-13T14:18:48.276Z,85.40
2018-12-13T14:21:19.259Z,68.03
2018-12-13T14:23:50.290Z,77.87
2018-12-13T14:26:21.971Z,92.20
2018-12-13T14:28:53.801Z,102.43
2018-12-13T14:31:40.524Z,83.50
2018-12-13T14:34:11.752Z,94.33
2018-12-13T14:36:43.218Z,158.03
2018-12-13T14:39:14.629Z,142.40
2018-12-13T14:41:46.410Z,94.87
2018-12-13T14:44:18.378Z,69.10
2018-12-13T14:46:49.802Z,69.90
2018-12-13T14:49:22.405Z,57.13
2018-12-13T14:51:55.052Z,75.90
2018-12-13T14:54:26.363Z,57.40
2018-12-13T14:56:57.687Z,52.07
2018-12-13T14:59:30.076Z,75.73
2018-12-13T15:02:01.173Z,63.87
2018-12-13T15:04:32.852Z,86.10
2018-12-13T15:07:04.399Z,105.60
2018-12-13T15:09:36.090Z,58.77
2018-12-13T15:12:07.141Z,60.03
2018-12-13T15:14:38.441Z,63.53
2018-12-13T15:17:09.539Z,59.60
2018-12-13T15:19:41.655Z,66.37
2018-12-13T15:22:13.323Z,69.40
2018-12-13T15:24:45.284Z,54.17
2018-12-13T15:27:16.373Z,61.37
2018-12-13T15:29:48.295Z,82.23
2018-12-13T15:32:20.796Z,71.67
2018-12-13T15:34:52.604Z,111.03
2018-12-13T15:37:24.476Z,96.73
2018-12-13T15:39:57.427Z,102.90
2018-12-13T15:42:29.321Z,68.30
2018-12-13T15:45:00.454Z,68.93
2018-12-13T15:47:31.816Z,72.23
2018-12-13T15:50:04.013Z,81.73
2018-12-13T15:52:36.402Z,70.37
2018-12-13T15:55:11.161Z,80.63
2018-12-13T15:57:43.429Z,84.33
2018-12-13T16:00:15.660Z,104.10
2018-12-13T16:02:47.380Z,88.90
2018-12-13T16:05:19.159Z,62.00
2018-12-13T16:07:50.996Z,72.90
2018-12-13T16:10:23.167Z,58.90
2018-12-13T16:12:55.962Z,54.50
2018-12-13T16:15:27.884Z,63.80
2018-12-13T16:17:59.546Z,56.67
2018-12-13T16:20:31.151Z,79.27
2018-12-13T16:23:02.997Z,64.40
2018-12-13T16:25:35.066Z,70.70
2018-12-13T16:28:06.921Z,55.87
2018-12-13T16:30:38.605Z,60.33
2018-12-13T16:33:10.809Z,54.50
2018-12-13T16:35:42.281Z,66.93
2018-12-13T16:38:13.924Z,86.73
2018-12-13T16:40:46.511Z,68.73
2018-12-13T16:43:18.045Z,84.27
2018-12-13T16:45:50.183Z,127.33
2018-12-13T16:48:21.957Z,116.20
2018-12-13T16:50:54.457Z,76.10
2018-12-13T16:53:26.779Z,97.87
2018-12-13T16:55:58.932Z,92.53
2018-12-13T16:58:31.450Z,78.80
2018-12-13T17:01:04.491Z,89.80
2018-12-13T17:03:43.785Z,89.10
2018-12-13T17:06:15.893Z,101.63
2018-12-13T17:08:48.827Z,70.00
2018-12-13T17:11:21.554Z,99.57
2018-12-13T17:13:53.968Z,61.63
2018-12-13T17:16:26.882Z,73.90
2018-12-13T17:18:58.160Z,60.57
2018-12-13T17:21:29.991Z,63.07
2018-12-13T17:24:02.738Z,76.93
2018-12-13T17:26:34.761Z,81.67
2018-12-13T17:29:07.494Z,122.17
2018-12-13T17:31:39.727Z,80.17
2018-12-13T17:34:12.368Z,72.17
2018-12-13T17:36:44.245Z,73.67
2018-12-13T17:39:16.046Z,64.53
2018-12-13T17:41:48.365Z,69.07
2018-12-13T17:44:20.559Z,71.00
2018-12-13T17:46:53.279Z,78.27
2018-12-13T17:49:26.041Z,63.37
2018-12-13T17:51:59.770Z,71.93
2018-12-13T18:05:47.988Z,74.80
2018-12-13T18:08:19.071Z,78.10
2018-12-13T18:10:50.534Z,66.90
2018-12-13T18:13:20.819Z,70.50
2018-12-13T18:15:51.325Z,83.70
2018-12-13T18:18:23.588Z,88.30
2018-12-13T18:20:55.267Z,83.17
2018-12-13T18:23:28.147Z,76.77
2018-12-13T18:25:59.077Z,64.47
2018-12-13T18:28:30.517Z,67.93
2018-12-13T18:31:01.989Z,83.00
2018-12-13T18:33:33.657Z,79.90
2018-12-13T18:36:04.952Z,101.33
2018-12-13T18:38:38.591Z,79.97
2018-12-13T18:41:11.028Z,71.03
2018-12-13T18:43:42.135Z,76.20
2018-12-13T18:46:13.815Z,68.53
2018-12-13T18:48:47.024Z,69.30
2018-12-13T18:51:18.600Z,73.17
2018-12-13T18:53:50.636Z,59.07
2018-12-13T18:56:22.840Z,72.73
2018-12-13T18:58:54.577Z,81.80
2018-12-13T19:01:26.303Z,69.00
2018-12-13T19:03:58.801Z,64.40
2018-12-13T19:06:30.410Z,83.60
2018-12-13T19:09:01.086Z,80.00
2018-12-13T19:11:33.858Z,62.97
2018-12-13T19:14:04.977Z,95.90
2018-12-13T19:16:35.612Z,80.67
2018-12-13T19:19:06.790Z,84.63
2018-12-13T19:21:38.194Z,120.20
2018-12-13T19:24:10.468Z,87.70
2018-12-13T19:26:42.887Z,55.10
2018-12-13T19:29:14.431Z,77.90
2018-12-13T19:31:46.932Z,57.87
2018-12-13T19:34:19.453Z,71.43
2018-12-13T19:36:51.003Z,85.60
2018-12-13T19:39:24.089Z,59.60
2018-12-13T19:41:55.512Z,64.00
2018-12-13T19:44:26.877Z,60.37
2018-12-13T19:46:57.900Z,62.30
2018-12-13T19:49:30.817Z,57.23
2018-12-13T19:52:02.250Z,50.63
2018-12-13T19:54:33.708Z,62.50
2018-12-13T19:57:07.845Z,72.37
2018-12-13T20:02:23.195Z,54.37
2018-12-13T20:04:54.447Z,60.73
2018-12-13T20:07:33.880Z,58.97
2018-12-13T20:10:04.709Z,65.73
2018-12-13T20:12:35.578Z,54.07
2018-12-13T20:15:07.059Z,64.30
2018-12-13T20:17:37.429Z,54.53
2018-12-13T20:20:08.698Z,61.27
2018-12-13T20:22:39.107Z,57.50
2018-12-13T20:25:09.968Z,50.73
2018-12-13T20:27:41.599Z,49.87
2018-12-13T20:30:12.163Z,48.20
2018-12-13T20:32:43.098Z,47.10
2018-12-13T20:35:14.861Z,55.73
2018-12-13T20:37:46.218Z,62.70
2018-12-13T20:40:16.247Z,53.37
2018-12-13T20:42:46.949Z,63.30
2018-12-13T20:45:17.659Z,52.23
2018-12-13T20:47:50.115Z,65.60
2018-12-13T20:50:21.480Z,73.17
2018-12-13T20:52:52.167Z,70.50
2018-12-13T20:55:24.194Z,62.83
2018-12-13T20:57:55.668Z,72.83
2018-12-13T21:00:26.152Z,62.10
2018-12-13T21:02:57.122Z,52.70
2018-12-13T21:05:27.710Z,52.63
2018-12-13T21:08:03.060Z,57.40
2018-12-13T21:10:34.190Z,54.43
2018-12-13T21:13:04.945Z,56.93
2018-12-13T21:15:35.240Z,61.37
2018-12-13T21:18:06.088Z,68.20
2018-12-13T21:20:38.139Z,71.07
2018-12-13T21:23:08.711Z,64.63
2018-12-13T21:25:39.438Z,58.53
2018-12-13T21:28:12.072Z,51.07
2018-12-13T21:30:43.957Z,54.17
2018-12-13T21:33:14.932Z,52.73
2018-12-13T21:35:52.217Z,54.73
2018-12-13T21:38:22.930Z,55.60
2018-12-13T21:40:53.611Z,68.07
2018-12-13T21:43:23.865Z,78.87
2018-12-13T21:45:54.365Z,56.23
2018-12-13T21:48:24.428Z,59.70
2018-12-13T21:50:54.419Z,62.53
2018-12-13T21:53:25.000Z,54.13
2018-12-13T21:55:55.500Z,64.57
2018-12-13T21:58:26.380Z,63.03
2018-12-13T22:00:56.565Z,62.80
2018-12-13T22:03:27.273Z,64.93
2018-12-13T22:05:57.874Z,60.63
2018-12-13T22:08:28.951Z,71.97
2018-12-13T22:10:59.316Z,74.83
2018-12-13T22:13:30.381Z,60.23
2018-12-13T22:16:00.889Z,63.60
2018-12-13T22:18:31.435Z,68.93
2018-12-13T22:21:01.949Z,57.53
2018-12-13T22:23:32.300Z,73.27
2018-12-13T22:26:01.947Z,63.23
2018-12-13T22:28:32.399Z,62.60
2018-12-13T22:31:02.869Z,62.97
2018-12-13T22:33:32.767Z,64.67
2018-12-13T22:36:02.566Z,69.67
2018-12-13T22:38:32.201Z,65.90
2018-12-13T22:41:02.139Z,68.43
2018-12-13T22:43:32.309Z,69.13
2018-12-13T22:46:04.674Z,61.93
2018-12-13T22:48:35.329Z,65.20
2018-12-13T22:51:05.104Z,67.43
2018-12-13T22:53:35.226Z,67.70
2018-12-13T22:56:05.546Z,68.90
2018-12-13T22:58:35.248Z,64.10
2018-12-13T23:01:05.041Z,65.73
2018-12-13T23:03:36.192Z,87.03
2018-12-13T23:06:06.531Z,65.80
2018-12-13T23:08:36.511Z,72.53
2018-12-13T23:11:06.978Z,65.37
2018-12-13T23:13:37.105Z,71.40
2018-12-13T23:16:07.063Z,73.97
2018-12-13T23:18:37.293Z,73.13
2018-12-13T23:21:06.779Z,71.70
2018-12-13T23:23:36.467Z,76.43
2018-12-13T23:26:06.424Z,67.70
2018-12-13T23:28:35.700Z,72.40
2018-12-13T23:31:05.973Z,85.77
2018-12-13T23:33:36.366Z,73.67
2018-12-13T23:36:06.425Z,60.00
2018-12-13T23:38:36.739Z,73.23
2018-12-13T23:41:06.708Z,75.10
2018-12-13T23:43:37.014Z,71.20
2018-12-13T23:46:07.072Z,67.20
2018-12-13T23:48:36.897Z,70.77
2018-12-13T23:51:06.696Z,68.03
2018-12-13T23:53:37.016Z,66.93
2018-12-13T23:56:07.263Z,73.53
2018-12-13T23:58:37.496Z,64.13
